sensor_id;sensor_type;location;lat;lon;timestamp;pressure;altitude;pressure_sealevel;temperature;humidity
8699;BME280;4386;51.236;6.742;2022-12-08T00:00:05;100688.44;;;6.54;81.23
8699;BME280;4386;51.236;6.742;2022-12-08T00:01:09;100688.44;;;6.54;81.51
8699;BME280;4386;51.236;6.742;2022-12-08T00:02:20;100688.44;;;6.54;81.53
8699;BME280;4386;51.236;6.742;2022-12-08T00:03:22;100684.97;;;6.54;81.43
8699;BME280;4386;51.236;6.742;2022-12-08T00:04:25;100683.25;;;6.53;81.47
8699;BME280;4386;51.236;6.742;2022-12-08T00:05:28;100692.84;;;6.54;81.48
8699;BME280;4386;51.236;6.742;2022-12-08T00:06:48;100681.38;;;6.55;81.37
8699;BME280;4386;51.236;6.742;2022-12-08T00:12:26;100673.66;;;6.52;81.11
8699;BME280;4386;51.236;6.742;2022-12-08T00:13:28;100677.25;;;6.51;81.50
8699;BME280;4386;51.236;6.742;2022-12-08T00:14:32;100676.41;;;6.50;81.27
8699;BME280;4386;51.236;6.742;2022-12-08T00:15:33;100672.94;;;6.50;81.25
8699;BME280;4386;51.236;6.742;2022-12-08T00:16:36;100674.72;;;6.49;81.69
8699;BME280;4386;51.236;6.742;2022-12-08T00:17:37;100673.84;;;6.49;81.36
8699;BME280;4386;51.236;6.742;2022-12-08T00:18:40;100669.44;;;6.49;81.39
8699;BME280;4386;51.236;6.742;2022-12-08T00:19:42;100666.81;;;6.49;81.60
8699;BME280;4386;51.236;6.742;2022-12-08T00:20:53;100668.50;;;6.50;81.69
8699;BME280;4386;51.236;6.742;2022-12-08T00:21:55;100668.50;;;6.50;81.64
8699;BME280;4386;51.236;6.742;2022-12-08T00:22:58;100666.72;;;6.51;81.43
8699;BME280;4386;51.236;6.742;2022-12-08T00:24:00;100667.53;;;6.51;81.42
8699;BME280;4386;51.236;6.742;2022-12-08T00:25:04;100651.88;;;6.50;81.69
8699;BME280;4386;51.236;6.742;2022-12-08T00:26:06;100657.03;;;6.51;81.38
8699;BME280;4386;51.236;6.742;2022-12-08T00:27:10;100659.66;;;6.51;81.51
8699;BME280;4386;51.236;6.742;2022-12-08T00:28:13;100653.47;;;6.52;81.61
8699;BME280;4386;51.236;6.742;2022-12-08T00:29:15;100650.75;;;6.54;81.80
8699;BME280;4386;51.236;6.742;2022-12-08T00:30:18;100652.41;;;6.55;81.53
8699;BME280;4386;51.236;6.742;2022-12-08T00:31:21;100653.25;;;6.55;81.68
8699;BME280;4386;51.236;6.742;2022-12-08T00:32:22;100652.34;;;6.56;81.40
8699;BME280;4386;51.236;6.742;2022-12-08T00:33:26;100654.97;;;6.56;81.71
8699;BME280;4386;51.236;6.742;2022-12-08T00:34:29;100644.44;;;6.56;81.88
8699;BME280;4386;51.236;6.742;2022-12-08T00:35:32;100653.25;;;6.55;81.66
8699;BME280;4386;51.236;6.742;2022-12-08T00:36:38;100649.88;;;6.53;81.50
8699;BME280;4386;51.236;6.742;2022-12-08T00:37:40;100642.94;;;6.52;81.24
8699;BME280;4386;51.236;6.742;2022-12-08T00:38:42;100645.56;;;6.52;81.49
8699;BME280;4386;51.236;6.742;2022-12-08T00:39:45;100642.94;;;6.52;81.39
8699;BME280;4386;51.236;6.742;2022-12-08T00:40:47;100637.66;;;6.52;81.37
8699;BME280;4386;51.236;6.742;2022-12-08T00:41:49;100632.41;;;6.52;81.78
8699;BME280;4386;51.236;6.742;2022-12-08T00:43:18;100637.66;;;6.52;81.38
8699;BME280;4386;51.236;6.742;2022-12-08T00:44:20;100635.97;;;6.51;81.39
8699;BME280;4386;51.236;6.742;2022-12-08T00:45:22;100640.41;;;6.51;81.08
8699;BME280;4386;51.236;6.742;2022-12-08T00:46:24;100637.84;;;6.49;81.70
8699;BME280;4386;51.236;6.742;2022-12-08T00:47:26;100640.50;;;6.49;81.48
8699;BME280;4386;51.236;6.742;2022-12-08T00:48:29;100631.75;;;6.49;81.44
8699;BME280;4386;51.236;6.742;2022-12-08T00:49:31;100632.69;;;6.48;81.57
8699;BME280;4386;51.236;6.742;2022-12-08T00:50:33;100631.84;;;6.47;81.39
8699;BME280;4386;51.236;6.742;2022-12-08T00:51:35;100640.69;;;6.46;81.75
8699;BME280;4386;51.236;6.742;2022-12-08T00:52:39;100631.09;;;6.45;81.64
8699;BME280;4386;51.236;6.742;2022-12-08T00:53:41;100631.09;;;6.45;81.53
8699;BME280;4386;51.236;6.742;2022-12-08T00:54:43;100624.97;;;6.45;81.38
8699;BME280;4386;51.236;6.742;2022-12-08T00:55:45;100626.78;;;6.44;81.30
8699;BME280;4386;51.236;6.742;2022-12-08T00:56:48;100622.44;;;6.43;81.49
8699;BME280;4386;51.236;6.742;2022-12-08T00:57:49;100624.16;;;6.44;81.25
8699;BME280;4386;51.236;6.742;2022-12-08T00:58:52;100626.00;;;6.42;81.75
8699;BME280;4386;51.236;6.742;2022-12-08T00:59:54;100625.09;;;6.43;81.38
8699;BME280;4386;51.236;6.742;2022-12-08T01:00:57;100629.41;;;6.44;81.69
8699;BME280;4386;51.236;6.742;2022-12-08T01:01:59;100628.56;;;6.44;81.44
8699;BME280;4386;51.236;6.742;2022-12-08T01:03:01;100629.41;;;6.44;81.73
8699;BME280;4386;51.236;6.742;2022-12-08T01:04:03;100624.16;;;6.44;81.43
8699;BME280;4386;51.236;6.742;2022-12-08T01:05:07;100619.69;;;6.45;81.57
8699;BME280;4386;51.236;6.742;2022-12-08T01:06:09;100618.88;;;6.44;81.42
8699;BME280;4386;51.236;6.742;2022-12-08T01:07:11;100622.25;;;6.46;81.46
8699;BME280;4386;51.236;6.742;2022-12-08T01:08:14;100621.31;;;6.47;81.65
8699;BME280;4386;51.236;6.742;2022-12-08T01:09:17;100626.47;;;6.49;81.60
8699;BME280;4386;51.236;6.742;2022-12-08T01:10:19;100621.13;;;6.50;81.52
8699;BME280;4386;51.236;6.742;2022-12-08T01:11:22;100617.53;;;6.51;81.67
8699;BME280;4386;51.236;6.742;2022-12-08T01:12:27;100613.03;;;6.53;81.51
8699;BME280;4386;51.236;6.742;2022-12-08T01:13:31;100620.00;;;6.54;81.55
8699;BME280;4386;51.236;6.742;2022-12-08T01:14:33;100618.97;;;6.57;81.50
8699;BME280;4386;51.236;6.742;2022-12-08T01:20:12;100616.88;;;6.62;81.72
8699;BME280;4386;51.236;6.742;2022-12-08T01:21:15;100619.63;;;6.60;81.61
8699;BME280;4386;51.236;6.742;2022-12-08T01:22:17;100620.47;;;6.61;81.29
8699;BME280;4386;51.236;6.742;2022-12-08T01:23:21;100624.75;;;6.62;81.80
8699;BME280;4386;51.236;6.742;2022-12-08T01:24:22;100622.97;;;6.62;81.31
8699;BME280;4386;51.236;6.742;2022-12-08T01:25:26;100624.69;;;6.63;81.80
8699;BME280;4386;51.236;6.742;2022-12-08T01:26:28;100621.94;;;6.65;81.49
8699;BME280;4386;51.236;6.742;2022-12-08T01:27:30;100622.78;;;6.65;81.75
8699;BME280;4386;51.236;6.742;2022-12-08T01:28:32;100623.63;;;6.66;81.60
8699;BME280;4386;51.236;6.742;2022-12-08T01:29:35;100620.91;;;6.67;81.34
8699;BME280;4386;51.236;6.742;2022-12-08T01:30:37;100624.38;;;6.68;81.36
8699;BME280;4386;51.236;6.742;2022-12-08T01:31:40;100620.81;;;6.69;81.30
8699;BME280;4386;51.236;6.742;2022-12-08T01:32:42;100622.50;;;6.70;81.62
8699;BME280;4386;51.236;6.742;2022-12-08T01:33:45;100628.63;;;6.70;81.63
8699;BME280;4386;51.236;6.742;2022-12-08T01:34:46;100625.97;;;6.70;81.32
8699;BME280;4386;51.236;6.742;2022-12-08T01:35:49;100625.97;;;6.70;81.36
8699;BME280;4386;51.236;6.742;2022-12-08T01:36:50;100622.38;;;6.71;81.56
8699;BME280;4386;51.236;6.742;2022-12-08T01:37:53;100621.44;;;6.72;81.34
8699;BME280;4386;51.236;6.742;2022-12-08T01:38:58;100620.53;;;6.73;81.51
8699;BME280;4386;51.236;6.742;2022-12-08T01:40:00;100618.63;;;6.75;81.64
8699;BME280;4386;51.236;6.742;2022-12-08T01:41:03;100621.19;;;6.77;81.42
8699;BME280;4386;51.236;6.742;2022-12-08T01:42:07;100613.28;;;6.77;81.54
8699;BME280;4386;51.236;6.742;2022-12-08T01:43:17;100618.44;;;6.78;81.63
8699;BME280;4386;51.236;6.742;2022-12-08T01:44:57;100616.63;;;6.79;81.59
8699;BME280;4386;51.236;6.742;2022-12-08T01:46:00;100608.75;;;6.79;81.42
8699;BME280;4386;51.236;6.742;2022-12-08T01:47:02;100617.50;;;6.79;81.55
8699;BME280;4386;51.236;6.742;2022-12-08T01:48:07;100612.22;;;6.79;81.63
8699;BME280;4386;51.236;6.742;2022-12-08T01:49:14;100621.81;;;6.80;81.20
8699;BME280;4386;51.236;6.742;2022-12-08T01:50:19;100613.94;;;6.80;81.45
8699;BME280;4386;51.236;6.742;2022-12-08T01:51:21;100612.97;;;6.81;81.29
8699;BME280;4386;51.236;6.742;2022-12-08T01:52:26;100621.63;;;6.84;81.20
8699;BME280;4386;51.236;6.742;2022-12-08T01:53:31;100612.75;;;6.85;81.20
8699;BME280;4386;51.236;6.742;2022-12-08T01:54:38;100610.88;;;6.87;81.24
8699;BME280;4386;51.236;6.742;2022-12-08T01:55:46;100609.19;;;6.86;81.53
8699;BME280;4386;51.236;6.742;2022-12-08T01:56:55;100616.16;;;6.87;81.71
8699;BME280;4386;51.236;6.742;2022-12-08T01:58:02;100604.78;;;6.86;81.68
8699;BME280;4386;51.236;6.742;2022-12-08T01:59:08;100606.56;;;6.86;81.40
8699;BME280;4386;51.236;6.742;2022-12-08T02:00:12;100607.28;;;6.88;81.35
8699;BME280;4386;51.236;6.742;2022-12-08T02:01:16;100603.72;;;6.89;81.55
8699;BME280;4386;51.236;6.742;2022-12-08T02:02:17;100601.09;;;6.89;81.21
8699;BME280;4386;51.236;6.742;2022-12-08T02:03:24;100601.00;;;6.90;81.25
8699;BME280;4386;51.236;6.742;2022-12-08T02:04:29;100604.47;;;6.91;81.32
8699;BME280;4386;51.236;6.742;2022-12-08T02:05:33;100603.53;;;6.92;81.30
8699;BME280;4386;51.236;6.742;2022-12-08T02:06:39;100598.25;;;6.92;81.32
8699;BME280;4386;51.236;6.742;2022-12-08T02:07:43;100599.94;;;6.93;81.07
8699;BME280;4386;51.236;6.742;2022-12-08T02:08:47;100603.53;;;6.92;81.25
8699;BME280;4386;51.236;6.742;2022-12-08T02:09:52;100596.56;;;6.91;81.02
8699;BME280;4386;51.236;6.742;2022-12-08T02:10:56;100591.28;;;6.91;80.83
8699;BME280;4386;51.236;6.742;2022-12-08T02:11:58;100597.53;;;6.90;81.15
8699;BME280;4386;51.236;6.742;2022-12-08T02:13:02;100599.31;;;6.89;81.24
8699;BME280;4386;51.236;6.742;2022-12-08T02:14:06;100600.03;;;6.91;81.15
8699;BME280;4386;51.236;6.742;2022-12-08T02:15:10;100593.09;;;6.90;81.22
8699;BME280;4386;51.236;6.742;2022-12-08T02:16:21;100590.47;;;6.90;80.66
8699;BME280;4386;51.236;6.742;2022-12-08T02:17:36;100582.56;;;6.90;80.65
8699;BME280;4386;51.236;6.742;2022-12-08T02:18:53;100592.13;;;6.91;81.00
8699;BME280;4386;51.236;6.742;2022-12-08T02:20:24;100593.00;;;6.92;80.78
8699;BME280;4386;51.236;6.742;2022-12-08T02:21:33;100586.88;;;6.91;81.10
8699;BME280;4386;51.236;6.742;2022-12-08T02:22:45;100594.69;;;6.93;80.84
8699;BME280;4386;51.236;6.742;2022-12-08T02:23:58;100587.72;;;6.92;81.26
8699;BME280;4386;51.236;6.742;2022-12-08T02:25:13;100587.72;;;6.92;80.73
8699;BME280;4386;51.236;6.742;2022-12-08T02:27:59;100582.44;;;6.92;81.03
8699;BME280;4386;51.236;6.742;2022-12-08T02:29:27;100577.31;;;6.90;80.87
8699;BME280;4386;51.236;6.742;2022-12-08T02:30:37;100566.84;;;6.89;80.80
8699;BME280;4386;51.236;6.742;2022-12-08T02:31:54;100568.53;;;6.90;80.49
8699;BME280;4386;51.236;6.742;2022-12-08T02:33:25;100572.13;;;6.89;80.59
8699;BME280;4386;51.236;6.742;2022-12-08T02:34:35;100569.47;;;6.89;80.78
8699;BME280;4386;51.236;6.742;2022-12-08T02:35:50;100559.16;;;6.86;80.92
8699;BME280;4386;51.236;6.742;2022-12-08T02:37:00;100560.00;;;6.86;80.52
8699;BME280;4386;51.236;6.742;2022-12-08T02:38:11;100561.78;;;6.86;80.60
8699;BME280;4386;51.236;6.742;2022-12-08T02:39:24;100564.50;;;6.84;80.64
8699;BME280;4386;51.236;6.742;2022-12-08T02:40:31;100564.69;;;6.81;80.34
8699;BME280;4386;51.236;6.742;2022-12-08T02:41:38;100563.88;;;6.80;80.31
8699;BME280;4386;51.236;6.742;2022-12-08T02:42:46;100560.28;;;6.81;80.54
8699;BME280;4386;51.236;6.742;2022-12-08T02:43:54;100554.28;;;6.79;80.23
8699;BME280;4386;51.236;6.742;2022-12-08T02:45:01;100548.09;;;6.80;80.51
8699;BME280;4386;51.236;6.742;2022-12-08T02:46:07;100556.91;;;6.79;80.73
8699;BME280;4386;51.236;6.742;2022-12-08T02:47:13;100553.44;;;6.79;80.29
8699;BME280;4386;51.236;6.742;2022-12-08T02:48:17;100561.34;;;6.79;80.50
8699;BME280;4386;51.236;6.742;2022-12-08T02:49:18;100555.22;;;6.78;80.21
8699;BME280;4386;51.236;6.742;2022-12-08T02:50:22;100553.53;;;6.77;80.63
8699;BME280;4386;51.236;6.742;2022-12-08T02:51:24;100560.50;;;6.78;80.71
8699;BME280;4386;51.236;6.742;2022-12-08T02:52:41;100546.38;;;6.79;80.20
8699;BME280;4386;51.236;6.742;2022-12-08T02:53:44;100545.44;;;6.80;80.59
8699;BME280;4386;51.236;6.742;2022-12-08T02:54:50;100542.81;;;6.80;80.58
8699;BME280;4386;51.236;6.742;2022-12-08T02:56:04;100538.38;;;6.81;80.56
8699;BME280;4386;51.236;6.742;2022-12-08T02:57:20;100538.38;;;6.81;80.67
8699;BME280;4386;51.236;6.742;2022-12-08T02:58:40;100534.91;;;6.80;80.44
8699;BME280;4386;51.236;6.742;2022-12-08T02:59:59;100536.69;;;6.80;80.46
8699;BME280;4386;51.236;6.742;2022-12-08T03:01:30;100533.31;;;6.78;80.37
8699;BME280;4386;51.236;6.742;2022-12-08T03:02:46;100537.72;;;6.77;80.08
8699;BME280;4386;51.236;6.742;2022-12-08T03:03:58;100537.84;;;6.76;80.53
8699;BME280;4386;51.236;6.742;2022-12-08T03:05:09;100538.69;;;6.76;80.41
8699;BME280;4386;51.236;6.742;2022-12-08T03:06:24;100533.41;;;6.76;80.28
8699;BME280;4386;51.236;6.742;2022-12-08T03:07:32;100525.53;;;6.76;80.58
8699;BME280;4386;51.236;6.742;2022-12-08T03:08:41;100525.53;;;6.76;80.27
8699;BME280;4386;51.236;6.742;2022-12-08T03:09:50;100516.66;;;6.77;80.65
8699;BME280;4386;51.236;6.742;2022-12-08T03:11:00;100527.09;;;6.79;80.62
8699;BME280;4386;51.236;6.742;2022-12-08T03:12:10;100524.47;;;6.79;80.66
8699;BME280;4386;51.236;6.742;2022-12-08T03:13:22;100528.81;;;6.80;80.39
8699;BME280;4386;51.236;6.742;2022-12-08T03:14:27;100522.69;;;6.79;80.04
8699;BME280;4386;51.236;6.742;2022-12-08T03:15:31;100513.94;;;6.79;80.40
8699;BME280;4386;51.236;6.742;2022-12-08T03:16:37;100515.63;;;6.80;80.55
8699;BME280;4386;51.236;6.742;2022-12-08T03:17:44;100513.09;;;6.78;80.25
8699;BME280;4386;51.236;6.742;2022-12-08T03:18:50;100514.78;;;6.79;80.47
8699;BME280;4386;51.236;6.742;2022-12-08T03:19:55;100520.06;;;6.79;80.18
8699;BME280;4386;51.236;6.742;2022-12-08T03:20:59;100514.78;;;6.79;80.30
8699;BME280;4386;51.236;6.742;2022-12-08T03:22:04;100510.25;;;6.81;79.99
8699;BME280;4386;51.236;6.742;2022-12-08T03:23:08;100509.31;;;6.82;80.15
8699;BME280;4386;51.236;6.742;2022-12-08T03:24:14;100515.31;;;6.85;80.46
8699;BME280;4386;51.236;6.742;2022-12-08T03:25:20;100509.09;;;6.86;80.25
8699;BME280;4386;51.236;6.742;2022-12-08T03:26:26;100515.03;;;6.89;80.26
8699;BME280;4386;51.236;6.742;2022-12-08T03:27:30;100515.03;;;6.89;80.52
8699;BME280;4386;51.236;6.742;2022-12-08T03:28:33;100512.47;;;6.88;80.23
8699;BME280;4386;51.236;6.742;2022-12-08T03:29:35;100507.19;;;6.88;79.90
8699;BME280;4386;51.236;6.742;2022-12-08T03:30:39;100508.16;;;6.87;79.96
8699;BME280;4386;51.236;6.742;2022-12-08T03:31:48;100510.03;;;6.85;80.26
8699;BME280;4386;51.236;6.742;2022-12-08T03:32:55;100502.06;;;6.86;80.49
8699;BME280;4386;51.236;6.742;2022-12-08T03:34:03;100504.69;;;6.86;80.21
8699;BME280;4386;51.236;6.742;2022-12-08T03:35:09;100505.53;;;6.87;80.42
8699;BME280;4386;51.236;6.742;2022-12-08T03:36:12;100500.28;;;6.87;80.29
8699;BME280;4386;51.236;6.742;2022-12-08T03:37:17;100495.09;;;6.85;80.35
8699;BME280;4386;51.236;6.742;2022-12-08T03:38:18;100498.56;;;6.86;80.32
8699;BME280;4386;51.236;6.742;2022-12-08T03:39:21;100499.41;;;6.86;80.09
8699;BME280;4386;51.236;6.742;2022-12-08T03:40:24;100504.56;;;6.88;80.22
8699;BME280;4386;51.236;6.742;2022-12-08T03:41:26;100490.66;;;6.86;79.80
8699;BME280;4386;51.236;6.742;2022-12-08T03:42:28;100490.59;;;6.87;80.03
8699;BME280;4386;51.236;6.742;2022-12-08T03:43:31;100497.50;;;6.88;79.82
8699;BME280;4386;51.236;6.742;2022-12-08T03:44:32;100492.25;;;6.88;80.30
8699;BME280;4386;51.236;6.742;2022-12-08T03:45:35;100493.09;;;6.89;80.14
8699;BME280;4386;51.236;6.742;2022-12-08T03:46:36;100501.00;;;6.89;80.08
8699;BME280;4386;51.236;6.742;2022-12-08T03:47:39;100490.47;;;6.89;80.01
8699;BME280;4386;51.236;6.742;2022-12-08T03:48:41;100493.09;;;6.89;79.66
8699;BME280;4386;51.236;6.742;2022-12-08T03:49:43;100495.00;;;6.87;79.99
8699;BME280;4386;51.236;6.742;2022-12-08T03:50:45;100483.63;;;6.86;79.65
8699;BME280;4386;51.236;6.742;2022-12-08T03:51:47;100486.25;;;6.86;79.62
8699;BME280;4386;51.236;6.742;2022-12-08T03:52:50;100487.19;;;6.85;79.88
8699;BME280;4386;51.236;6.742;2022-12-08T03:53:53;100483.63;;;6.86;80.06
8699;BME280;4386;51.236;6.742;2022-12-08T03:54:54;100474.78;;;6.87;80.12
8699;BME280;4386;51.236;6.742;2022-12-08T03:55:57;100485.09;;;6.90;80.16
8699;BME280;4386;51.236;6.742;2022-12-08T03:56:58;100472.88;;;6.89;79.95
8699;BME280;4386;51.236;6.742;2022-12-08T03:58:01;100474.56;;;6.90;80.08
8699;BME280;4386;51.236;6.742;2022-12-08T03:59:03;100475.38;;;6.91;80.00
8699;BME280;4386;51.236;6.742;2022-12-08T04:00:08;100475.38;;;6.91;79.54
8699;BME280;4386;51.236;6.742;2022-12-08T04:01:12;100478.03;;;6.91;79.72
8699;BME280;4386;51.236;6.742;2022-12-08T04:02:14;100474.56;;;6.90;79.82
8699;BME280;4386;51.236;6.742;2022-12-08T04:03:17;100470.13;;;6.91;79.84
8699;BME280;4386;51.236;6.742;2022-12-08T04:04:18;100471.09;;;6.90;79.98
8699;BME280;4386;51.236;6.742;2022-12-08T04:05:21;100468.47;;;6.90;79.58
8699;BME280;4386;51.236;6.742;2022-12-08T04:06:23;100462.22;;;6.91;79.83
8699;BME280;4386;51.236;6.742;2022-12-08T04:07:25;100470.97;;;6.91;79.64
8699;BME280;4386;51.236;6.742;2022-12-08T04:08:28;100470.97;;;6.91;79.93
8699;BME280;4386;51.236;6.742;2022-12-08T04:09:32;100466.75;;;6.89;79.54
8699;BME280;4386;51.236;6.742;2022-12-08T04:10:35;100463.41;;;6.87;79.39
8699;BME280;4386;51.236;6.742;2022-12-08T04:11:36;100461.69;;;6.86;79.54
8699;BME280;4386;51.236;6.742;2022-12-08T04:12:39;100456.44;;;6.86;79.58
8699;BME280;4386;51.236;6.742;2022-12-08T04:13:41;100459.06;;;6.86;79.80
8699;BME280;4386;51.236;6.742;2022-12-08T04:14:43;100460.00;;;6.85;79.61
8699;BME280;4386;51.236;6.742;2022-12-08T04:15:45;100449.47;;;6.85;79.57
8699;BME280;4386;51.236;6.742;2022-12-08T04:16:48;100457.38;;;6.85;79.52
8699;BME280;4386;51.236;6.742;2022-12-08T04:17:50;100456.53;;;6.84;79.69
8699;BME280;4386;51.236;6.742;2022-12-08T04:18:52;100452.09;;;6.85;79.54
8699;BME280;4386;51.236;6.742;2022-12-08T04:19:55;100452.88;;;6.87;79.52
8699;BME280;4386;51.236;6.742;2022-12-08T04:20:57;100450.22;;;6.87;79.38
8699;BME280;4386;51.236;6.742;2022-12-08T04:21:59;100452.00;;;6.86;79.64
8699;BME280;4386;51.236;6.742;2022-12-08T04:23:01;100451.16;;;6.86;79.53
8699;BME280;4386;51.236;6.742;2022-12-08T04:24:05;100448.44;;;6.87;79.65
8699;BME280;4386;51.236;6.742;2022-12-08T04:25:08;100450.09;;;6.88;79.42
8699;BME280;4386;51.236;6.742;2022-12-08T04:26:10;100450.22;;;6.87;79.72
8699;BME280;4386;51.236;6.742;2022-12-08T04:27:14;100444.84;;;6.88;79.78
8699;BME280;4386;51.236;6.742;2022-12-08T04:28:16;100445.69;;;6.89;79.71
8699;BME280;4386;51.236;6.742;2022-12-08T04:29:18;100441.28;;;6.89;79.49
8699;BME280;4386;51.236;6.742;2022-12-08T04:30:20;100442.13;;;6.90;79.31
8699;BME280;4386;51.236;6.742;2022-12-08T04:31:23;100443.06;;;6.89;79.59
8699;BME280;4386;51.236;6.742;2022-12-08T04:32:24;100436.84;;;6.90;79.73
8699;BME280;4386;51.236;6.742;2022-12-08T04:33:27;100446.53;;;6.89;79.48
8699;BME280;4386;51.236;6.742;2022-12-08T04:34:29;100438.63;;;6.89;79.33
8699;BME280;4386;51.236;6.742;2022-12-08T04:35:31;100438.72;;;6.88;79.67
8699;BME280;4386;51.236;6.742;2022-12-08T04:36:33;100439.69;;;6.87;79.63
8699;BME280;4386;51.236;6.742;2022-12-08T04:37:35;100437.78;;;6.89;79.50
8699;BME280;4386;51.236;6.742;2022-12-08T04:38:37;100433.47;;;6.88;79.47
8699;BME280;4386;51.236;6.742;2022-12-08T04:39:41;100434.22;;;6.90;79.45
8699;BME280;4386;51.236;6.742;2022-12-08T04:40:43;100431.66;;;6.88;79.55
8699;BME280;4386;51.236;6.742;2022-12-08T04:41:45;100435.16;;;6.89;79.48
8699;BME280;4386;51.236;6.742;2022-12-08T04:42:47;100433.47;;;6.88;79.31
8699;BME280;4386;51.236;6.742;2022-12-08T04:43:49;100433.47;;;6.88;79.74
8699;BME280;4386;51.236;6.742;2022-12-08T04:44:52;100434.31;;;6.88;79.94
8699;BME280;4386;51.236;6.742;2022-12-08T04:45:53;100435.16;;;6.89;79.70
8699;BME280;4386;51.236;6.742;2022-12-08T04:46:56;100435.16;;;6.89;79.84
8699;BME280;4386;51.236;6.742;2022-12-08T04:47:58;100431.78;;;6.87;79.58
8699;BME280;4386;51.236;6.742;2022-12-08T04:49:00;100433.47;;;6.88;79.65
8699;BME280;4386;51.236;6.742;2022-12-08T04:50:04;100434.44;;;6.87;79.53
8699;BME280;4386;51.236;6.742;2022-12-08T04:51:13;100426.53;;;6.87;79.85
8699;BME280;4386;51.236;6.742;2022-12-08T04:52:16;100427.38;;;6.87;79.74
8699;BME280;4386;51.236;6.742;2022-12-08T04:53:17;100431.78;;;6.87;79.75
8699;BME280;4386;51.236;6.742;2022-12-08T04:54:21;100421.47;;;6.84;79.94
8699;BME280;4386;51.236;6.742;2022-12-08T04:55:24;100424.09;;;6.84;80.01
8699;BME280;4386;51.236;6.742;2022-12-08T04:56:27;100423.97;;;6.85;80.07
8699;BME280;4386;51.236;6.742;2022-12-08T04:57:28;100429.16;;;6.87;80.04
8699;BME280;4386;51.236;6.742;2022-12-08T04:58:31;100428.19;;;6.88;79.75
8699;BME280;4386;51.236;6.742;2022-12-08T04:59:35;100428.19;;;6.88;79.69
8699;BME280;4386;51.236;6.742;2022-12-08T05:00:38;100427.47;;;6.86;80.00
8699;BME280;4386;51.236;6.742;2022-12-08T05:01:40;100428.41;;;6.85;79.86
8699;BME280;4386;51.236;6.742;2022-12-08T05:02:43;100428.41;;;6.85;79.92
8699;BME280;4386;51.236;6.742;2022-12-08T05:03:45;100426.72;;;6.84;79.77
8699;BME280;4386;51.236;6.742;2022-12-08T05:04:47;100424.09;;;6.84;80.00
8699;BME280;4386;51.236;6.742;2022-12-08T05:05:49;100421.47;;;6.84;80.23
8699;BME280;4386;51.236;6.742;2022-12-08T05:06:51;100419.78;;;6.82;79.98
8699;BME280;4386;51.236;6.742;2022-12-08T05:07:53;100412.81;;;6.81;80.00
8699;BME280;4386;51.236;6.742;2022-12-08T05:08:55;100414.50;;;6.82;80.42
8699;BME280;4386;51.236;6.742;2022-12-08T05:09:57;100419.78;;;6.82;80.51
8699;BME280;4386;51.236;6.742;2022-12-08T05:11:02;100420.81;;;6.80;80.08
8699;BME280;4386;51.236;6.742;2022-12-08T05:12:04;100426.09;;;6.80;80.40
8699;BME280;4386;51.236;6.742;2022-12-08T05:13:07;100421.03;;;6.77;80.06
8699;BME280;4386;51.236;6.742;2022-12-08T05:14:10;100420.06;;;6.78;80.06
8699;BME280;4386;51.236;6.742;2022-12-08T05:15:13;100423.56;;;6.78;80.29
8699;BME280;4386;51.236;6.742;2022-12-08T05:16:15;100426.09;;;6.80;80.30
8699;BME280;4386;51.236;6.742;2022-12-08T05:17:18;100423.34;;;6.81;80.63
8699;BME280;4386;51.236;6.742;2022-12-08T05:18:19;100424.19;;;6.82;80.27
8699;BME280;4386;51.236;6.742;2022-12-08T05:19:25;100420.72;;;6.81;80.34
8699;BME280;4386;51.236;6.742;2022-12-08T05:20:27;100422.41;;;6.82;80.48
8699;BME280;4386;51.236;6.742;2022-12-08T05:21:29;100427.66;;;6.82;80.55
8699;BME280;4386;51.236;6.742;2022-12-08T05:22:31;100425.03;;;6.82;80.77
8699;BME280;4386;51.236;6.742;2022-12-08T05:23:34;100419.78;;;6.82;80.66
8699;BME280;4386;51.236;6.742;2022-12-08T05:24:36;100425.03;;;6.82;80.48
8699;BME280;4386;51.236;6.742;2022-12-08T05:25:46;100418.84;;;6.84;80.89
8699;BME280;4386;51.236;6.742;2022-12-08T05:26:49;100420.63;;;6.83;80.72
8699;BME280;4386;51.236;6.742;2022-12-08T05:27:51;100418.84;;;6.84;80.97
8699;BME280;4386;51.236;6.742;2022-12-08T05:29:14;100426.72;;;6.84;80.86
8699;BME280;4386;51.236;6.742;2022-12-08T05:30:16;100422.41;;;6.82;80.71
8699;BME280;4386;51.236;6.742;2022-12-08T05:31:19;100417.22;;;6.81;80.42
8699;BME280;4386;51.236;6.742;2022-12-08T05:32:20;100418.06;;;6.81;80.81
8699;BME280;4386;51.236;6.742;2022-12-08T05:33:23;100417.34;;;6.79;80.91
8699;BME280;4386;51.236;6.742;2022-12-08T05:34:25;100425.25;;;6.79;80.67
8699;BME280;4386;51.236;6.742;2022-12-08T05:35:27;100414.72;;;6.79;81.19
8699;BME280;4386;51.236;6.742;2022-12-08T05:36:29;100423.56;;;6.78;80.65
8699;BME280;4386;51.236;6.742;2022-12-08T05:37:32;100414.72;;;6.79;80.83
8699;BME280;4386;51.236;6.742;2022-12-08T05:38:33;100416.50;;;6.79;81.12
8699;BME280;4386;51.236;6.742;2022-12-08T05:39:36;100413.78;;;6.80;81.09
8699;BME280;4386;51.236;6.742;2022-12-08T05:40:38;100416.41;;;6.80;81.38
8699;BME280;4386;51.236;6.742;2022-12-08T05:41:41;100412.81;;;6.81;81.03
8699;BME280;4386;51.236;6.742;2022-12-08T05:42:44;100409.25;;;6.82;81.20
8699;BME280;4386;51.236;6.742;2022-12-08T05:43:47;100420.63;;;6.83;81.26
8699;BME280;4386;51.236;6.742;2022-12-08T05:44:49;100408.38;;;6.82;81.05
8699;BME280;4386;51.236;6.742;2022-12-08T05:45:51;100412.81;;;6.81;80.82
8699;BME280;4386;51.236;6.742;2022-12-08T05:46:53;100417.22;;;6.81;81.26
8699;BME280;4386;51.236;6.742;2022-12-08T05:47:56;100411.03;;;6.82;81.10
8699;BME280;4386;51.236;6.742;2022-12-08T05:48:58;100403.25;;;6.80;81.22
8699;BME280;4386;51.236;6.742;2022-12-08T05:50:01;100402.28;;;6.81;81.13
8699;BME280;4386;51.236;6.742;2022-12-08T05:51:03;100403.97;;;6.82;80.93
8699;BME280;4386;51.236;6.742;2022-12-08T05:52:11;100401.34;;;6.82;81.00
8699;BME280;4386;51.236;6.742;2022-12-08T05:53:12;100400.41;;;6.84;81.25
8699;BME280;4386;51.236;6.742;2022-12-08T05:54:15;100396.91;;;6.83;81.19
8699;BME280;4386;51.236;6.742;2022-12-08T05:55:17;100398.69;;;6.82;81.30
8699;BME280;4386;51.236;6.742;2022-12-08T05:56:20;100403.13;;;6.82;81.21
8699;BME280;4386;51.236;6.742;2022-12-08T05:57:21;100400.50;;;6.82;81.02
8699;BME280;4386;51.236;6.742;2022-12-08T05:58:25;100401.44;;;6.81;81.18
8699;BME280;4386;51.236;6.742;2022-12-08T05:59:27;100393.66;;;6.79;81.06
8699;BME280;4386;51.236;6.742;2022-12-08T06:00:29;100402.47;;;6.78;81.40
8699;BME280;4386;51.236;6.742;2022-12-08T06:01:35;100397.44;;;6.75;80.96
8699;BME280;4386;51.236;6.742;2022-12-08T06:02:37;100398.47;;;6.73;80.69